Time;durP1;ratioP1;P1;durP2;ratioP2;P2;SDS_P1;SDS_P2;PMS_P1;PMS_P2;Temp;Humidity;BMP_temperature;BMP_pressure;BME280_temperature;BME280_humidity;BME280_pressure;Samples;Min_cycle;Max_cycle;Signal;HPM_P1;HPM_P2
2022/10/23 00:00:48;;;;;;;7.43;6.90;;;;;;;-142.65;98.98;50170.78;5114169;28;20205;-68
2022/10/23 00:03:14;;;;;;;8.30;7.80;;;;;;;;;;5115329;28;20610;-68
2022/10/23 00:05:40;;;;;;;8.57;7.60;;;;;;;;;;5114166;28;20185;-67
2022/10/23 00:08:07;;;;;;;8.53;7.83;;;;;;;;;;5114136;28;20674;-67
2022/10/23 00:10:34;;;;;;;9.00;8.17;;;;;;;;;;5114498;28;20201;-68
2022/10/23 00:13:00;;;;;;;8.03;7.43;;;;;;;-142.65;99.17;50174.75;5114347;28;20184;-68
2022/10/23 00:15:27;;;;;;;8.30;7.63;;;;;;;-142.65;99.18;50172.78;5114823;28;20535;-68
2022/10/23 00:17:53;;;;;;;8.10;7.57;;;;;;;-142.65;99.08;50170.78;5113956;28;20196;-68
2022/10/23 00:20:20;;;;;;;7.07;6.67;;;;;;;-142.65;99.18;50178.75;5113794;28;20211;-68
2022/10/23 00:22:47;;;;;;;8.03;7.27;;;;;;;-142.65;99.12;50168.78;5114192;28;20188;-68
2022/10/23 00:25:15;;;;;;;9.03;8.50;;;;;;;-142.65;98.94;50170.78;5114408;28;20639;-68
2022/10/23 00:27:41;;;;;;;9.20;8.17;;;;;;;;;;5114405;28;20181;-68
2022/10/23 00:30:09;;;;;;;8.00;7.50;;;;;;;-142.65;99.04;50168.78;5095447;28;20196;-68
2022/10/23 00:32:36;;;;;;;11.57;7.17;;;;;;;-142.65;99.13;50170.78;5114101;28;20582;-67
2022/10/23 00:35:03;;;;;;;7.90;7.60;;;;;;;-142.65;99.08;50168.78;5114266;28;20628;-67
2022/10/23 00:37:29;;;;;;;9.37;8.67;;;;;;;;;;5113718;28;20181;-67
2022/10/23 00:39:56;;;;;;;9.77;8.80;;;;;;;-142.65;98.95;50170.78;5113638;28;20197;-67
2022/10/23 00:42:22;;;;;;;7.50;6.97;;;;;;;-142.65;98.86;50170.78;5113646;28;20223;-68
2022/10/23 00:44:49;;;;;;;8.90;8.17;;;;;;;-142.65;99.24;50170.78;5113662;28;20191;-68
2022/10/23 00:47:15;;;;;;;8.20;7.70;;;;;;;;;;5113916;28;20185;-68
2022/10/23 00:49:42;;;;;;;7.97;7.40;;;;;;;-142.65;99.13;50170.78;5113621;28;20660;-67
2022/10/23 00:52:11;;;;;;;7.03;6.67;;;;;;;-142.65;99.02;50170.78;5095302;28;20223;-68
2022/10/23 00:54:42;;;;;;;8.30;7.70;;;;;;;-142.65;99.05;50170.78;5113841;28;20650;-68
2022/10/23 00:57:12;;;;;;;8.07;7.57;;;;;;;-142.65;99.00;50172.78;5095379;28;20228;-68
2022/10/23 00:59:39;;;;;;;7.37;6.47;;;;;;;-142.65;99.05;50164.81;5095304;28;20584;-68
2022/10/23 01:02:06;;;;;;;9.63;7.30;;;;;;;-142.65;99.02;50168.78;5095915;28;20312;-68
2022/10/23 01:04:33;;;;;;;8.43;7.73;;;;;;;-142.65;98.88;50170.78;5113404;28;20189;-68
2022/10/23 01:07:14;;;;;;;7.80;7.33;;;;;;;-142.65;98.99;50168.78;5095455;28;20199;-68
2022/10/23 01:09:58;;;;;;;7.73;7.40;;;;;;;-142.65;98.97;50172.78;5117870;28;20169;-68
2022/10/23 01:12:33;;;;;;;14.77;8.03;;;;;;;-142.65;98.94;50170.78;5099174;28;20312;-67
2022/10/23 01:15:12;;;;;;;7.30;7.00;;;;;;;-142.65;98.90;50176.75;5099075;28;20222;-67
2022/10/23 01:17:44;;;;;;;6.97;6.57;;;;;;;;;;5117993;28;20211;-67
2022/10/23 01:20:41;;;;;;;6.70;6.33;;;;;;;-142.65;98.90;50172.78;5099019;28;20258;-68
2022/10/23 01:23:32;;;;;;;7.60;7.30;;;;;;;-142.65;98.90;50168.78;5099874;28;20189;-67
2022/10/23 01:26:39;;;;;;;7.63;7.13;;;;;;;-142.65;98.92;50168.78;5099031;28;20224;-67
2022/10/23 01:29:57;;;;;;;7.97;7.47;;;;;;;-142.65;98.83;50170.78;5074452;28;20246;-67
2022/10/23 01:32:46;;;;;;;8.13;7.60;;;;;;;-142.65;98.78;50170.78;5094743;28;20196;-68
2022/10/23 01:35:25;;;;;;;7.07;6.67;;;;;;;-142.65;98.78;50170.78;5098776;28;20663;-68
2022/10/23 01:38:08;;;;;;;6.60;6.23;;;;;;;-142.65;98.67;50162.81;5098697;28;20532;-68
2022/10/23 01:40:37;;;;;;;5.93;5.70;;;;;;;;;;5098552;28;20228;-68
2022/10/23 01:43:06;;;;;;;5.83;5.53;;;;;;;;;;5098627;28;20292;-68
2022/10/23 01:45:44;;;;;;;6.13;5.50;;;;;;;-142.65;98.67;50168.78;5098545;28;20232;-68
2022/10/23 01:48:18;;;;;;;6.47;6.37;;;;;;;-142.65;98.71;50170.78;5099143;28;20189;-68
2022/10/23 01:50:45;;;;;;;6.80;6.30;;;;;;;;;;5098476;28;20241;-68
2022/10/23 01:53:12;;;;;;;6.77;6.37;;;;;;;-142.65;98.62;50164.81;5098377;28;20193;-68
2022/10/23 01:55:39;;;;;;;6.40;6.00;;;;;;;;;;5098422;28;20189;-68
2022/10/23 01:58:13;;;;;;;12.00;6.77;;;;;;;;;;5098646;28;20539;-68
2022/10/23 02:00:44;;;;;;;6.30;5.90;;;;;;;-142.65;98.61;50170.78;5098816;28;20224;-68
2022/10/23 02:03:14;;;;;;;7.20;6.70;;;;;;;-142.65;98.67;50170.78;5098554;28;20199;-67
2022/10/23 02:05:42;;;;;;;6.43;6.13;;;;;;;-142.65;98.58;50172.78;5098272;28;20173;-67
2022/10/23 02:08:08;;;;;;;7.13;6.70;;;;;;;;;;5098188;28;20219;-67
2022/10/23 02:10:41;;;;;;;7.30;6.57;;;;;;;;;;5098039;28;20254;-68
2022/10/23 02:13:09;;;;;;;11.67;6.60;;;;;;;;;;5116247;28;20192;-68
2022/10/23 02:15:44;;;;;;;6.10;5.63;;;;;;;-142.65;98.81;50168.78;5116622;28;20566;-68
2022/10/23 02:18:29;;;;;;;12.03;6.73;;;;;;;;;;5097946;28;20187;-68
2022/10/23 02:20:59;;;;;;;6.60;6.40;;;;;;;-142.65;98.68;50162.81;5097577;28;20216;-68
2022/10/23 02:23:40;;;;;;;7.10;6.30;;;;;;;;;;5116446;28;20624;-68
2022/10/23 02:26:14;;;;;;;6.17;5.87;;;;;;;-142.65;98.91;50168.78;5116362;28;20181;-68
2022/10/23 02:29:33;;;;;;;6.60;5.97;;;;;;;-142.65;98.98;50174.75;5098040;28;20193;-68
2022/10/23 02:32:00;;;;;;;6.70;6.10;;;;;;;;;;5055428;28;20260;-68
2022/10/23 02:34:27;;;;;;;6.67;6.40;;;;;;;-142.65;99.00;50170.78;5115936;28;20260;-68
2022/10/23 02:36:53;;;;;;;6.17;5.97;;;;;;;-142.65;99.10;50170.78;5097629;28;20283;-68
2022/10/23 02:39:22;;;;;;;6.63;6.30;;;;;;;;;;5097459;28;20308;-68
2022/10/23 02:42:07;;;;;;;6.53;6.00;;;;;;;-142.65;99.14;50178.75;5097485;28;20213;-68
2022/10/23 02:44:37;;;;;;;7.40;6.80;;;;;;;;;;5115741;28;20169;-68
2022/10/23 02:47:08;;;;;;;6.83;6.43;;;;;;;;;;5097405;28;20233;-68
2022/10/23 02:49:46;;;;;;;5.70;5.50;;;;;;;-142.65;99.32;50174.75;5115940;28;20169;-68
2022/10/23 02:52:23;;;;;;;6.73;6.23;;;;;;;-142.65;99.34;50168.78;5097267;28;20612;-68
2022/10/23 02:55:02;;;;;;;5.93;5.73;;;;;;;-142.65;99.34;50168.78;5115851;28;20173;-68
2022/10/23 02:57:53;;;;;;;7.30;5.30;;;;;;;-142.65;99.32;50170.78;5097769;28;20177;-68
2022/10/23 03:00:21;;;;;;;6.17;5.83;;;;;;;-142.65;99.53;50164.81;5097150;28;20603;-68
2022/10/23 03:03:17;;;;;;;5.80;5.60;;;;;;;-142.65;99.63;50172.78;5115363;28;20234;-68
2022/10/23 03:05:44;;;;;;;5.53;5.43;;;;;;;-142.65;99.62;50164.81;5088661;28;20197;-68
2022/10/23 03:08:13;;;;;;;5.57;5.23;;;;;;;;;;5097854;28;20200;-68
2022/10/23 03:10:40;;;;;;;4.67;4.57;;;;;;;-142.65;99.67;50168.78;5097314;28;20625;-68
2022/10/23 03:13:08;;;;;;;5.20;5.07;;;;;;;-142.65;99.74;50164.81;5096734;28;20189;-68
2022/10/23 03:15:40;;;;;;;7.53;5.47;;;;;;;;;;5096756;28;20181;-68
2022/10/23 03:18:10;;;;;;;5.77;5.63;;;;;;;-142.65;99.94;50162.81;5115635;28;20669;-68
2022/10/23 03:20:37;;;;;;;10.03;5.50;;;;;;;;;;5097402;28;20221;-68
2022/10/23 03:23:04;;;;;;;6.03;5.73;;;;;;;-142.65;100.00;50168.78;5096705;28;20283;-68
2022/10/23 03:25:30;;;;;;;5.70;5.30;;;;;;;-142.65;100.00;50168.78;5114886;28;20192;-68
2022/10/23 03:27:58;;;;;;;5.50;5.20;;;;;;;;;;5115410;28;20177;-68
2022/10/23 03:30:24;;;;;;;6.87;6.60;;;;;;;-142.65;100.00;50174.75;5096555;28;20215;-68
2022/10/23 03:32:53;;;;;;;7.43;6.97;;;;;;;-142.65;100.00;50162.81;5096457;28;20203;-68
2022/10/23 03:35:19;;;;;;;6.63;6.33;;;;;;;-142.65;100.00;50170.78;5114736;28;20275;-68
2022/10/23 03:37:46;;;;;;;7.23;6.93;;;;;;;;;;5096457;28;20189;-68
2022/10/23 03:40:12;;;;;;;6.90;6.40;;;;;;;;;;5114731;28;20564;-68
2022/10/23 03:42:38;;;;;;;5.63;5.37;;;;;;;;;;5114566;28;20181;-68
2022/10/23 03:45:06;;;;;;;6.70;6.40;;;;;;;-142.65;100.00;50170.78;5096329;28;20263;-68
2022/10/23 03:47:34;;;;;;;5.87;5.60;;;;;;;-142.65;100.00;50172.78;5096203;28;20243;-68
2022/10/23 03:50:01;;;;;;;5.60;5.30;;;;;;;;;;5096217;28;20185;-68
2022/10/23 03:52:28;;;;;;;5.93;5.60;;;;;;;-142.65;100.00;50168.78;5096356;28;20205;-68
2022/10/23 03:54:54;;;;;;;6.07;5.73;;;;;;;-142.65;100.00;50176.75;5096150;28;20223;-68
2022/10/23 03:57:20;;;;;;;6.43;6.07;;;;;;;;;;5096130;28;20627;-68
2022/10/23 03:59:47;;;;;;;5.40;4.90;;;;;;;;;;5114752;28;20647;-68
2022/10/23 04:02:14;;;;;;;5.73;5.60;;;;;;;-142.65;100.00;50168.78;5095991;28;20225;-68
2022/10/23 04:04:41;;;;;;;5.67;5.27;;;;;;;-142.65;100.00;50164.81;5114468;28;20544;-68
2022/10/23 04:07:08;;;;;;;5.70;5.40;;;;;;;-142.65;100.00;50170.78;5114139;28;20180;-68
2022/10/23 04:09:34;;;;;;;5.70;5.53;;;;;;;-142.65;100.00;50170.78;5114713;28;20173;-68
2022/10/23 04:12:02;;;;;;;5.20;4.90;;;;;;;;;;5096037;28;20675;-68
2022/10/23 04:14:28;;;;;;;5.27;4.87;;;;;;;-142.65;100.00;50170.78;5095598;28;20197;-68
2022/10/23 04:16:55;;;;;;;4.70;4.50;;;;;;;-142.65;100.00;50174.75;5095785;28;20275;-68
2022/10/23 04:19:22;;;;;;;5.30;5.00;;;;;;;;;;5095604;28;20662;-68
2022/10/23 04:21:48;;;;;;;5.57;5.40;;;;;;;-142.65;100.00;50172.78;5095932;28;20750;-68
2022/10/23 04:24:15;;;;;;;5.93;5.63;;;;;;;;;;5114193;28;20185;-68
2022/10/23 04:26:41;;;;;;;6.97;6.57;;;;;;;-142.65;100.00;50172.78;5095706;28;20189;-68
2022/10/23 04:29:09;;;;;;;7.40;6.90;;;;;;;-142.65;100.00;50164.81;5096174;28;20200;-68
2022/10/23 04:31:35;;;;;;;6.20;5.97;;;;;;;-142.65;100.00;50170.78;5095549;28;20212;-68
2022/10/23 04:34:02;;;;;;;6.53;6.03;;;;;;;-142.65;100.00;50164.81;5095592;28;20292;-67
2022/10/23 04:36:30;;;;;;;6.27;5.77;;;;;;;-142.65;100.00;50164.81;5095819;28;20539;-67
2022/10/23 04:39:02;;;;;;;6.13;5.40;;;;;;;;;;5095567;28;20213;-67
2022/10/23 04:41:29;;;;;;;6.50;6.40;;;;;;;;;;5095192;28;20622;-68
2022/10/23 04:43:55;;;;;;;5.50;5.20;;;;;;;-142.65;100.00;50118.97;5113336;28;20201;-68
2022/10/23 04:46:21;;;;;;;6.47;5.90;;;;;;;-142.65;100.00;50162.81;5113669;28;20303;-68
2022/10/23 04:48:48;;;;;;;5.30;5.07;;;;;;;-142.65;100.00;50164.81;5095400;28;20211;-68
2022/10/23 04:51:33;;;;;;;8.93;5.53;;;;;;;-142.65;100.00;50164.81;5113871;28;20262;-68
2022/10/23 04:54:12;;;;;;;6.43;5.90;;;;;;;-142.65;100.00;50170.78;5113918;28;20177;-68
2022/10/23 04:57:04;;;;;;;5.23;5.07;;;;;;;;;;5089659;28;20204;-68
2022/10/23 04:59:46;;;;;;;5.37;5.17;;;;;;;-142.65;100.00;50164.81;5095494;28;20241;-68
2022/10/23 05:02:13;;;;;;;5.17;4.97;;;;;;;-142.65;100.00;50172.78;5113473;28;20785;-68
2022/10/23 05:04:39;;;;;;;6.03;5.63;;;;;;;-142.65;100.00;50170.78;5095235;28;20189;-68
2022/10/23 05:07:24;;;;;;;6.37;5.93;;;;;;;;;;5114065;28;20548;-68
2022/10/23 05:10:29;;;;;;;5.90;5.60;;;;;;;-142.65;100.00;50164.81;5031060;28;20223;-68
2022/10/23 05:13:09;;;;;;;6.13;5.70;;;;;;;-142.65;100.00;50170.78;5030727;28;20195;-68
2022/10/23 05:15:36;;;;;;;10.83;5.57;;;;;;;-142.65;100.00;50170.78;5076733;28;20557;-68
2022/10/23 05:18:28;;;;;;;5.80;5.60;;;;;;;-142.65;100.00;50162.81;5113375;28;20623;-68
2022/10/23 05:20:58;;;;;;;5.67;5.10;;;;;;;;;;5095751;28;20324;-68
2022/10/23 05:23:25;;;;;;;5.20;4.90;;;;;;;;;;5095049;28;20193;-68
2022/10/23 05:25:55;;;;;;;6.33;5.43;;;;;;;-142.65;100.00;50118.97;5095058;28;20189;-68
2022/10/23 05:28:22;;;;;;;5.23;4.83;;;;;;;-142.65;100.00;50170.78;5095020;28;20254;-68
2022/10/23 05:30:49;;;;;;;5.90;5.47;;;;;;;;;;5095595;28;20217;-68
2022/10/23 05:33:16;;;;;;;5.20;4.97;;;;;;;-142.65;100.00;50164.81;5095015;28;20193;-68
2022/10/23 05:35:44;;;;;;;6.00;5.50;;;;;;;-142.65;100.00;50168.78;5094945;28;20189;-68
2022/10/23 05:38:13;;;;;;;5.10;4.80;;;;;;;-142.65;100.00;50168.78;5095820;28;20293;-68
2022/10/23 05:40:40;;;;;;;5.83;5.63;;;;;;;-142.65;100.00;50170.78;5095061;28;20221;-68
2022/10/23 05:43:12;;;;;;;5.57;5.23;;;;;;;-142.65;100.00;50168.78;5094921;28;20193;-68
2022/10/23 05:45:47;;;;;;;7.33;6.53;;;;;;;-142.65;100.00;50162.81;5095209;28;20196;-68
2022/10/23 05:48:19;;;;;;;11.30;6.10;;;;;;;-142.65;100.00;50170.78;5113707;28;20217;-68
2022/10/23 05:51:21;;;;;;;6.23;5.97;;;;;;;-142.65;100.00;50170.78;5071166;28;20215;-68
2022/10/23 05:53:59;;;;;;;5.70;5.43;;;;;;;-142.65;100.00;50168.78;5094925;28;20604;-68
2022/10/23 05:56:35;;;;;;;7.10;6.50;;;;;;;;;;5098475;28;20189;-68
2022/10/23 05:59:09;;;;;;;7.57;6.07;;;;;;;-142.65;100.00;50164.81;5098270;28;20187;-68
2022/10/23 06:01:50;;;;;;;5.97;5.60;;;;;;;-142.65;100.00;50118.97;5098068;28;20591;-68
2022/10/23 06:04:28;;;;;;;9.70;6.60;;;;;;;-142.65;100.00;50168.78;5098508;28;20189;-68
2022/10/23 06:07:14;;;;;;;6.20;5.67;;;;;;;;;;5102086;28;20697;-68
2022/10/23 06:09:43;;;;;;;16.53;6.60;;;;;;;-142.65;100.00;50164.81;5098203;28;20570;-68
2022/10/23 06:12:09;;;;;;;6.40;6.20;;;;;;;;;;5116287;28;20292;-68
2022/10/23 06:14:36;;;;;;;5.87;5.33;;;;;;;-142.65;100.00;50164.81;5097969;28;20200;-67
2022/10/23 06:17:03;;;;;;;5.60;5.30;;;;;;;-142.65;100.00;50164.81;5098028;28;20567;-67
2022/10/23 06:19:37;;;;;;;5.90;5.27;;;;;;;-142.65;100.00;50164.81;5098738;28;20189;-67
2022/10/23 06:22:04;;;;;;;9.77;5.83;;;;;;;-142.65;100.00;50168.78;5098500;28;20721;-68
2022/10/23 06:24:47;;;;;;;6.33;5.70;;;;;;;-142.65;100.00;50164.81;5097784;28;20181;-68
2022/10/23 06:27:19;;;;;;;5.27;4.83;;;;;;;-142.65;100.00;50162.81;5098611;28;20213;-68
2022/10/23 06:29:46;;;;;;;5.33;5.13;;;;;;;-142.65;100.00;50172.78;5097678;28;20220;-68
2022/10/23 06:32:12;;;;;;;7.90;5.13;;;;;;;-142.65;100.00;50168.78;5097737;28;20213;-68
2022/10/23 06:34:43;;;;;;;5.50;5.20;;;;;;;-142.65;100.00;50164.81;5098255;28;20182;-68
2022/10/23 06:37:10;;;;;;;5.23;4.87;;;;;;;-142.65;100.00;50168.78;5115883;28;20191;-68
2022/10/23 06:39:43;;;;;;;5.90;5.60;;;;;;;-142.65;100.00;50162.81;5098424;28;20224;-68
2022/10/23 06:42:20;;;;;;;5.97;5.57;;;;;;;-142.65;100.00;50164.81;5097510;28;20701;-68
2022/10/23 06:44:55;;;;;;;5.00;4.87;;;;;;;-142.65;100.00;50164.81;5116058;28;20188;-68
2022/10/23 06:47:40;;;;;;;5.63;5.23;;;;;;;-142.65;100.00;50170.78;5116043;28;20203;-68
2022/10/23 06:50:33;;;;;;;5.40;5.30;;;;;;;;;;5115631;28;20270;-68
2022/10/23 06:53:05;;;;;;;6.43;6.10;;;;;;;-142.65;100.00;50168.78;5097417;28;20192;-68
2022/10/23 06:55:35;;;;;;;5.10;5.00;;;;;;;-142.65;100.00;50168.78;5097596;28;20257;-68
2022/10/23 06:58:09;;;;;;;5.93;5.53;;;;;;;-142.65;100.00;50170.78;5097207;28;20260;-68
2022/10/23 07:00:46;;;;;;;5.47;5.27;;;;;;;-142.65;100.00;50168.78;5097854;28;20577;-68
2022/10/23 07:03:13;;;;;;;5.50;5.13;;;;;;;-142.65;100.00;50172.78;5097042;28;20189;-68
2022/10/23 07:05:39;;;;;;;6.17;5.77;;;;;;;-142.65;100.00;50174.75;5097151;28;20600;-68
2022/10/23 07:08:06;;;;;;;4.87;4.67;;;;;;;;;;5096943;28;20189;-68
2022/10/23 07:10:41;;;;;;;6.23;5.30;;;;;;;-142.65;100.00;50162.81;5097087;28;20201;-68
2022/10/23 07:13:08;;;;;;;6.83;6.50;;;;;;;;;;5096660;28;20216;-68
2022/10/23 07:15:38;;;;;;;9.27;5.20;;;;;;;;;;5097817;28;20276;-68
2022/10/23 07:18:13;;;;;;;4.70;4.60;;;;;;;;;;5097637;28;20577;-68
2022/10/23 07:20:59;;;;;;;5.37;5.13;;;;;;;;;;5114717;28;20213;-68
2022/10/23 07:23:27;;;;;;;5.23;4.87;;;;;;;-142.65;100.00;50168.78;5097000;28;20677;-68
2022/10/23 07:25:53;;;;;;;5.40;5.00;;;;;;;-142.65;100.00;50162.81;5096636;28;20197;-68
2022/10/23 07:28:21;;;;;;;4.63;4.43;;;;;;;-142.65;100.00;50170.78;5096643;28;20196;-68
2022/10/23 07:30:56;;;;;;;5.23;5.03;;;;;;;-142.65;100.00;50162.81;5096559;28;20278;-68
2022/10/23 07:33:23;;;;;;;6.43;5.93;;;;;;;-142.65;100.00;50162.81;5096848;28;20560;-68
2022/10/23 07:35:59;;;;;;;5.93;5.40;;;;;;;-142.65;100.00;50168.78;5096536;28;20204;-68
2022/10/23 07:38:26;;;;;;;6.17;5.27;;;;;;;;;;5096454;28;20189;-68
2022/10/23 07:40:56;;;;;;;5.27;4.97;;;;;;;-142.65;100.00;50170.78;5096257;28;20220;-68
2022/10/23 07:43:24;;;;;;;6.10;5.73;;;;;;;-142.65;100.00;50174.75;5096462;28;20604;-68
2022/10/23 07:45:51;;;;;;;5.40;5.10;;;;;;;-142.65;100.00;50164.81;5096293;28;20712;-68
2022/10/23 07:48:26;;;;;;;5.67;4.77;;;;;;;-142.65;100.00;50117.00;5096475;28;20197;-68
2022/10/23 07:51:00;;;;;;;5.20;4.87;;;;;;;-142.65;100.00;50162.81;5096095;28;20563;-68
2022/10/23 07:53:26;;;;;;;8.10;4.70;;;;;;;;;;5114916;28;20174;-68
2022/10/23 07:56:01;;;;;;;5.73;5.53;;;;;;;-142.65;100.00;50162.81;5096696;28;20188;-68
2022/10/23 07:58:49;;;;;;;5.87;4.23;;;;;;;-142.65;100.00;50170.78;5114145;28;20189;-68
2022/10/23 08:01:19;;;;;;;9.17;4.90;;;;;;;-142.65;100.00;50168.78;5095947;28;20253;-68
2022/10/23 08:03:45;;;;;;;5.73;5.30;;;;;;;-142.65;100.00;50162.81;5095922;28;20204;-67
2022/10/23 08:06:12;;;;;;;6.43;5.37;;;;;;;;;;5114785;28;20217;-67
2022/10/23 08:08:38;;;;;;;5.13;4.60;;;;;;;;;;5095906;28;20206;-67
2022/10/23 08:11:11;;;;;;;6.27;5.20;;;;;;;-142.65;100.00;50170.78;5096612;28;20208;-68
2022/10/23 08:13:44;;;;;;;5.93;5.60;;;;;;;-142.65;100.00;50164.81;5095759;28;20211;-68
2022/10/23 08:16:11;;;;;;;8.93;4.57;;;;;;;-142.65;100.00;50162.81;5095658;28;20605;-68
2022/10/23 08:18:56;;;;;;;5.20;4.90;;;;;;;-142.65;99.80;50164.81;5114180;28;20181;-68
2022/10/23 08:21:23;;;;;;;12.10;5.43;;;;;;;-142.65;99.80;50168.78;5095654;28;20213;-68
2022/10/23 08:23:56;;;;;;;5.00;4.70;;;;;;;-142.65;99.59;50162.81;5095650;28;20221;-68
2022/10/23 08:26:23;;;;;;;5.63;5.23;;;;;;;-142.65;99.48;50164.81;5096487;28;20185;-68
2022/10/23 08:28:51;;;;;;;6.70;4.43;;;;;;;-142.65;99.47;50164.81;5095632;28;20177;-68
2022/10/23 08:31:19;;;;;;;4.90;4.73;;;;;;;-142.65;99.23;50170.78;5095521;28;20209;-68
2022/10/23 08:34:04;;;;;;;7.67;5.13;;;;;;;-142.65;99.13;50170.78;5095844;28;20673;-68
2022/10/23 08:36:32;;;;;;;4.97;4.67;;;;;;;;;;5096345;28;20224;-68
2022/10/23 08:38:58;;;;;;;4.97;4.63;;;;;;;-142.65;98.41;50162.81;5095536;28;20280;-68
2022/10/23 08:41:40;;;;;;;4.23;4.10;;;;;;;-142.65;98.02;50168.78;5095574;28;20209;-68
2022/10/23 08:44:21;;;;;;;5.20;4.83;;;;;;;-142.65;97.49;50162.81;5095539;28;20185;-68
2022/10/23 08:47:23;;;;;;;4.70;4.27;;;;;;;-142.65;97.03;50162.81;5095477;28;20711;-67
2022/10/23 08:50:26;;;;;;;7.83;4.90;;;;;;;-142.65;96.17;50168.78;5114155;28;20722;-68
2022/10/23 08:52:58;;;;;;;5.20;4.87;;;;;;;-142.65;95.73;50162.81;5113649;28;20231;-68
2022/10/23 08:55:42;;;;;;;4.93;4.57;;;;;;;-142.65;95.34;50117.00;5095846;28;20183;-68
2022/10/23 08:58:14;;;;;;;4.40;4.30;;;;;;;-142.65;95.10;50117.00;5114117;28;20177;-68
2022/10/23 09:00:41;;;;;;;4.40;4.30;;;;;;;;;;5113645;28;20219;-68
2022/10/23 09:03:10;;;;;;;5.03;4.63;;;;;;;-142.65;94.58;50164.81;5113768;28;20621;-68
2022/10/23 09:05:43;;;;;;;4.50;4.30;;;;;;;;;;5113418;28;20189;-68
2022/10/23 09:08:39;;;;;;;4.97;4.63;;;;;;;-142.65;94.37;50164.81;5113435;28;20193;-68
2022/10/23 09:11:33;;;;;;;3.53;3.53;;;;;;;-142.65;94.02;50117.00;5113563;28;20220;-68
2022/10/23 09:14:40;;;;;;;3.80;3.70;;;;;;;-142.65;93.61;50162.81;5113240;28;20267;-68
2022/10/23 09:17:27;;;;;;;8.00;4.13;;;;;;;;;;5113605;28;20177;-68
2022/10/23 09:20:15;;;;;;;4.10;3.90;;;;;;;-142.65;93.08;50162.81;5095269;28;20189;-68
2022/10/23 09:22:42;;;;;;;3.97;3.80;;;;;;;-142.65;93.08;50162.81;5113590;28;20193;-68
2022/10/23 09:25:19;;;;;;;4.03;3.93;;;;;;;;;;5113299;28;20188;-68
2022/10/23 09:27:49;;;;;;;4.67;2.93;;;;;;;-142.65;92.57;50164.81;5113940;28;20177;-68
2022/10/23 09:30:31;;;;;;;3.67;3.57;;;;;;;-142.65;92.32;50117.00;5117701;28;20260;-68
2022/10/23 09:32:59;;;;;;;2.93;2.83;;;;;;;-142.65;92.22;50118.97;5117334;28;20165;-68
2022/10/23 09:35:28;;;;;;;3.93;3.20;;;;;;;-142.65;91.82;50162.81;5117415;28;20276;-68
2022/10/23 09:37:55;;;;;;;3.50;2.47;;;;;;;;;;5117381;28;20189;-68
2022/10/23 09:40:30;;;;;;;2.60;2.60;;;;;;;-142.65;91.54;50168.78;5117137;28;20196;-68
2022/10/23 09:43:20;;;;;;;3.40;3.00;;;;;;;-142.65;91.54;50162.81;5117497;28;20246;-68
2022/10/23 09:45:56;;;;;;;3.20;3.10;;;;;;;;;;5098930;28;20711;-68
2022/10/23 09:48:23;;;;;;;3.07;3.07;;;;;;;-142.65;91.45;50160.81;5099272;28;20279;-68
2022/10/23 09:50:54;;;;;;;3.53;3.43;;;;;;;;;;5116729;28;20204;-68
2022/10/23 09:53:37;;;;;;;3.53;3.43;;;;;;;-142.65;91.11;50164.81;5116798;28;20177;-68
2022/10/23 09:56:22;;;;;;;3.33;3.00;;;;;;;-142.65;90.84;50118.97;5117305;28;20191;-68
2022/10/23 09:58:56;;;;;;;2.83;2.80;;;;;;;-142.65;90.79;50164.81;5117292;28;20174;-68
2022/10/23 10:01:25;;;;;;;3.67;3.53;;;;;;;-142.65;90.52;50162.81;5116587;28;20230;-68
2022/10/23 10:03:56;;;;;;;3.97;3.83;;;;;;;-142.65;89.87;50164.81;5098568;28;20328;-68
2022/10/23 10:06:30;;;;;;;6.67;3.67;;;;;;;-142.65;90.08;50162.81;5099161;28;20189;-68
2022/10/23 10:09:00;;;;;;;4.10;3.60;;;;;;;-142.65;89.84;50164.81;5116510;28;20173;-68
2022/10/23 10:11:32;;;;;;;3.13;3.03;;;;;;;;;;5116946;28;20292;-68
2022/10/23 10:14:23;;;;;;;3.73;3.43;;;;;;;-142.65;89.49;50164.81;5116227;28;20203;-68
2022/10/23 10:16:57;;;;;;;4.20;4.07;;;;;;;;;;5116332;28;20178;-68
2022/10/23 10:19:38;;;;;;;3.47;3.47;;;;;;;-142.65;89.28;50164.81;5116608;28;20178;-68
2022/10/23 10:22:28;;;;;;;5.47;5.27;;;;;;;-142.65;89.10;50164.81;5116157;28;20212;-68
2022/10/23 10:25:31;;;;;;;6.93;5.10;;;;;;;-142.65;89.04;50164.81;5098479;28;20276;-68
2022/10/23 10:28:15;;;;;;;5.13;4.43;;;;;;;-142.65;88.51;50162.81;5111464;28;20235;-68
2022/10/23 10:30:52;;;;;;;4.07;3.97;;;;;;;;;;5116265;28;20581;-68
2022/10/23 10:33:31;;;;;;;4.07;4.00;;;;;;;-142.65;87.17;50162.81;5116590;28;20222;-68
2022/10/23 10:36:18;;;;;;;8.03;6.33;;;;;;;-142.65;86.12;50162.81;5116521;28;20631;-68
2022/10/23 10:38:51;;;;;;;5.33;5.23;;;;;;;-142.65;85.98;50160.81;5097655;28;20205;-68
2022/10/23 10:41:29;;;;;;;4.83;4.60;;;;;;;-142.65;85.38;50164.81;5115091;28;20211;-68
2022/10/23 10:44:11;;;;;;;4.80;4.63;;;;;;;-142.65;84.40;50162.81;5115852;28;20179;-68
2022/10/23 10:47:12;;;;;;;7.23;6.73;;;;;;;-142.65;84.53;50160.81;5116013;28;20177;-68
2022/10/23 10:49:59;;;;;;;9.57;4.40;;;;;;;-142.65;84.54;50162.81;5097455;28;20177;-68
2022/10/23 10:52:49;;;;;;;4.60;3.83;;;;;;;-142.65;84.71;50162.81;5097338;28;20563;-68
2022/10/23 10:55:32;;;;;;;4.43;4.23;;;;;;;-142.65;84.14;50164.81;5116085;28;20185;-68
2022/10/23 10:58:04;;;;;;;7.57;3.80;;;;;;;-142.65;84.33;50162.81;5116122;28;20507;-68
2022/10/23 11:00:33;;;;;;;10.03;5.70;;;;;;;-142.65;84.09;50164.81;5115652;28;20209;-68
2022/10/23 11:03:37;;;;;;;4.63;4.53;;;;;;;-142.65;83.76;50164.81;5115300;28;20290;-68
2022/10/23 11:06:15;;;;;;;7.27;3.23;;;;;;;-142.65;83.34;50164.81;5115689;28;20200;-68
2022/10/23 11:08:41;;;;;;;6.47;6.17;;;;;;;-142.65;82.95;50162.81;5115543;28;20173;-68
2022/10/23 11:11:34;;;;;;;5.20;4.90;;;;;;;-142.65;82.54;50117.00;5115428;28;20212;-68
2022/10/23 11:14:01;;;;;;;6.13;4.00;;;;;;;-142.65;81.97;50101.06;5115278;28;20250;-68
2022/10/23 11:16:34;;;;;;;3.83;3.73;;;;;;;-142.65;81.31;50162.81;5115402;28;20191;-68
2022/10/23 11:19:44;;;;;;;7.63;3.27;;;;;;;-142.65;80.54;50101.06;5115447;28;20197;-68
2022/10/23 11:22:24;;;;;;;4.27;3.87;;;;;;;-142.65;80.01;50164.81;5012577;28;20220;-68
2022/10/23 11:25:06;;;;;;;4.00;3.80;;;;;;;-142.65;79.83;50162.81;5012634;28;20631;-68
2022/10/23 11:27:51;;;;;;;3.63;3.53;;;;;;;;;;5073073;28;20185;-68
2022/10/23 11:30:58;;;;;;;5.30;2.90;;;;;;;-142.65;79.17;50164.81;5096624;28;20181;-68
2022/10/23 11:33:49;;;;;;;2.57;2.57;;;;;;;-142.65;79.28;50101.06;5065884;28;20201;-68
2022/10/23 11:36:30;;;;;;;3.30;3.10;;;;;;;-142.65;78.48;50162.81;5115342;28;20522;-68
2022/10/23 11:39:13;;;;;;;2.93;2.90;;;;;;;-142.65;77.50;50101.06;5114707;28;20182;-68
2022/10/23 11:41:47;;;;;;;2.77;2.77;;;;;;;-142.65;77.68;50164.81;5115145;28;20260;-68
2022/10/23 11:44:44;;;;;;;2.57;2.47;;;;;;;-142.65;77.28;50160.81;5115208;28;20619;-68
2022/10/23 11:47:31;;;;;;;2.63;2.53;;;;;;;-142.65;77.50;50164.81;5096348;28;20626;-68
2022/10/23 11:50:07;;;;;;;5.13;1.90;;;;;;;-142.65;77.29;50162.81;5114773;28;20219;-68
2022/10/23 11:52:34;;;;;;;5.53;5.07;;;;;;;;;;5114619;28;20173;-68
2022/10/23 11:55:23;;;;;;;3.13;2.50;;;;;;;;;;5114978;28;20173;-68
2022/10/23 11:58:06;;;;;;;2.10;2.10;;;;;;;;;;5096232;28;20596;-68
2022/10/23 12:00:38;;;;;;;5.20;2.47;;;;;;;-142.65;76.86;50164.81;5114494;28;20279;-68
2022/10/23 12:03:19;;;;;;;2.43;2.43;;;;;;;-142.65;77.06;50162.81;5114759;28;20193;-68
2022/10/23 12:05:45;;;;;;;2.53;2.53;;;;;;;;;;5114823;28;20501;-68
2022/10/23 12:08:24;;;;;;;11.97;3.13;;;;;;;-142.65;76.97;50162.81;5114195;28;20193;-68
2022/10/23 12:10:51;;;;;;;2.50;2.50;;;;;;;-142.65;76.54;50162.81;5096276;28;20209;-68
2022/10/23 12:13:33;;;;;;;2.90;2.87;;;;;;;-142.65;76.18;50162.81;5114012;28;20181;-68
2022/10/23 12:15:59;;;;;;;2.83;2.27;;;;;;;-142.65;76.04;50101.06;5095829;28;20316;-68
2022/10/23 12:18:27;;;;;;;2.63;2.63;;;;;;;-142.65;76.57;50164.81;5114212;28;20181;-68
2022/10/23 12:20:57;;;;;;;4.53;3.40;;;;;;;;;;5113872;28;20237;-68
2022/10/23 12:23:40;;;;;;;9.40;3.87;;;;;;;-142.65;74.35;50162.81;5114213;28;20189;-68
2022/10/23 12:26:15;;;;;;;6.40;2.67;;;;;;;-142.65;73.13;50164.81;5114323;28;20197;-68
2022/10/23 12:29:10;;;;;;;6.30;2.63;;;;;;;-142.65;71.56;50164.81;5113893;28;20195;-68
2022/10/23 12:31:43;;;;;;;2.27;2.27;;;;;;;-142.65;72.81;50160.81;5113777;28;20215;-68